KAL908 EGLL-RKSI
Flight info
| Callsign | KAL908 |
|---|---|
| Flight time | N/A |
| Altitude | 33000 |
| Route | DET L6 DVR UL9 KONAN UL607 MATUG DCT GUBAX DCT KOMIB L984 SULUS Z650 VEMUT DCT PEPIK DCT BUDOP DCT DINRO/N0480F350 N743 UDROS UM859 KARDE UN644 ROLIN DCT TAGAR DCT BT DCT BARAD M747 SUBUT T916 BALUN/K0889F350 T916 TUROK/K0882F370 T916 PIGAL M610 RULAD/K0878S1130 A343 POSOT B215 FKG W188 LIKMI W270 DKO/K0876S1190 W69 HUR B339 LADIX W34 VAPGU W100 ORAVA W201 UNSEK A326 DONVO G597 AGAVO/N0473F390 Y644 REBIT REBIT1Y |
| Aircraft | B77W/H-SDE1E2E3FGHIJ2J3J4J5M1RWXY/LB1D1 |
Departure
| Time | N/A |
|---|---|
| Airport | London Heathrow Airport (EGLL) |
Arrival
| Time | 2026-05-07 14:04 |
|---|---|
| Airport | Incheon International Airport (RKSI) |
| Time | Latitude | Longitude | Altitude | Speed | Heading |
|---|---|---|---|---|---|
| 2026-05-07 13:25 | 38.39083 | 121.59220 | 39096 ft | 587 kts | 104° |
| 2026-05-07 13:25 | 38.37383 | 121.69393 | 39099 ft | 587 kts | 104° |
| 2026-05-07 13:26 | 38.35684 | 121.79499 | 39095 ft | 588 kts | 104° |
| 2026-05-07 13:26 | 38.33962 | 121.89681 | 39090 ft | 588 kts | 104° |
| 2026-05-07 13:27 | 38.32229 | 121.99871 | 39093 ft | 589 kts | 104° |
| 2026-05-07 13:27 | 38.30490 | 122.10049 | 39090 ft | 590 kts | 104° |
| 2026-05-07 13:28 | 38.28733 | 122.20272 | 39087 ft | 590 kts | 104° |
| 2026-05-07 13:28 | 38.27059 | 122.30436 | 39091 ft | 591 kts | 102° |
| 2026-05-07 13:29 | 38.25311 | 122.40604 | 39075 ft | 585 kts | 114° |
| 2026-05-07 13:29 | 38.21527 | 122.49588 | 39088 ft | 570 kts | 133° |
| 2026-05-07 13:30 | 38.19000 | 122.53409 | 39074 ft | 559 kts | 143° |
| 2026-05-07 13:30 | 38.16215 | 122.56831 | 39078 ft | 557 kts | 144° |
| 2026-05-07 13:30 | 38.10668 | 122.63725 | 39064 ft | 559 kts | 142° |
| 2026-05-07 13:31 | 38.05262 | 122.70749 | 39066 ft | 560 kts | 142° |
| 2026-05-07 13:31 | 37.99829 | 122.77836 | 39064 ft | 560 kts | 142° |
| 2026-05-07 13:32 | 37.94385 | 122.84903 | 39061 ft | 560 kts | 142° |
| 2026-05-07 13:32 | 37.88935 | 122.91948 | 39047 ft | 559 kts | 142° |
| 2026-05-07 13:33 | 37.86224 | 122.95449 | 38893 ft | 556 kts | 143° |
| 2026-05-07 13:33 | 37.83516 | 122.98939 | 38545 ft | 556 kts | 143° |
| 2026-05-07 13:33 | 37.80830 | 123.02394 | 37935 ft | 561 kts | 143° |
| 2026-05-07 13:33 | 37.78072 | 123.05931 | 37333 ft | 567 kts | 144° |
| 2026-05-07 13:34 | 37.75303 | 123.09484 | 37132 ft | 569 kts | 144° |
| 2026-05-07 13:34 | 37.69714 | 123.16655 | 37064 ft | 576 kts | 144° |
| 2026-05-07 13:35 | 37.64099 | 123.23853 | 37046 ft | 575 kts | 144° |
| 2026-05-07 13:35 | 37.58518 | 123.30991 | 36635 ft | 569 kts | 144° |
| 2026-05-07 13:35 | 37.55811 | 123.34677 | 36105 ft | 579 kts | 140° |
| 2026-05-07 13:36 | 37.53294 | 123.38706 | 35516 ft | 589 kts | 136° |
| 2026-05-07 13:36 | 37.50874 | 123.42817 | 35197 ft | 596 kts | 136° |
| 2026-05-07 13:36 | 37.48412 | 123.47053 | 35060 ft | 600 kts | 136° |
| 2026-05-07 13:37 | 37.43492 | 123.55470 | 35036 ft | 595 kts | 136° |
| 2026-05-07 13:37 | 37.38528 | 123.63791 | 35032 ft | 594 kts | 137° |
| 2026-05-07 13:38 | 37.33541 | 123.72076 | 35037 ft | 594 kts | 137° |
| 2026-05-07 13:38 | 37.28588 | 123.80304 | 35035 ft | 594 kts | 137° |
| 2026-05-07 13:39 | 37.23607 | 123.88576 | 35031 ft | 594 kts | 137° |
| 2026-05-07 13:39 | 37.19044 | 123.97271 | 35032 ft | 611 kts | 121° |
| 2026-05-07 13:39 | 37.17610 | 124.02328 | 35043 ft | 621 kts | 109° |
| 2026-05-07 13:40 | 37.16830 | 124.07687 | 35032 ft | 628 kts | 97° |
| 2026-05-07 13:40 | 37.16857 | 124.13168 | 35018 ft | 630 kts | 85° |
| 2026-05-07 13:40 | 37.17297 | 124.18576 | 34912 ft | 617 kts | 84° |
| 2026-05-07 13:40 | 37.17642 | 124.23827 | 34423 ft | 610 kts | 87° |
| 2026-05-07 13:41 | 37.17829 | 124.29151 | 33456 ft | 613 kts | 90° |
| 2026-05-07 13:41 | 37.17889 | 124.34482 | 32653 ft | 610 kts | 91° |
| 2026-05-07 13:41 | 37.17954 | 124.39747 | 31738 ft | 599 kts | 91° |
| 2026-05-07 13:41 | 37.18059 | 124.44988 | 30866 ft | 601 kts | 91° |
| 2026-05-07 13:42 | 37.18182 | 124.50214 | 30261 ft | 597 kts | 91° |
| 2026-05-07 13:42 | 37.18308 | 124.55372 | 29578 ft | 592 kts | 91° |
| 2026-05-07 13:42 | 37.18429 | 124.60544 | 28721 ft | 591 kts | 91° |
| 2026-05-07 13:42 | 37.18543 | 124.65677 | 27956 ft | 587 kts | 91° |
| 2026-05-07 13:43 | 37.18650 | 124.70778 | 27227 ft | 583 kts | 91° |
| 2026-05-07 13:43 | 37.18752 | 124.75777 | 26515 ft | 579 kts | 91° |
| 2026-05-07 13:43 | 37.18854 | 124.80802 | 25839 ft | 575 kts | 91° |
| 2026-05-07 13:43 | 37.18954 | 124.85780 | 25229 ft | 569 kts | 91° |
| 2026-05-07 13:44 | 37.19055 | 124.90715 | 24669 ft | 562 kts | 91° |
| 2026-05-07 13:44 | 37.19121 | 124.93948 | 24311 ft | 557 kts | 91° |
| 2026-05-07 13:44 | 37.19251 | 125.00396 | 23546 ft | 550 kts | 91° |
| 2026-05-07 13:44 | 37.19345 | 125.05169 | 22909 ft | 544 kts | 91° |
| 2026-05-07 13:45 | 37.19435 | 125.09870 | 22372 ft | 535 kts | 91° |
| 2026-05-07 13:45 | 37.19522 | 125.14498 | 21847 ft | 527 kts | 91° |
| 2026-05-07 13:45 | 37.19604 | 125.19000 | 21322 ft | 520 kts | 91° |
| 2026-05-07 13:45 | 37.19684 | 125.23496 | 20792 ft | 513 kts | 91° |
| 2026-05-07 13:46 | 37.19752 | 125.27941 | 20265 ft | 504 kts | 92° |
| 2026-05-07 13:46 | 37.19568 | 125.32288 | 19725 ft | 495 kts | 98° |
| 2026-05-07 13:46 | 37.19201 | 125.36551 | 19146 ft | 489 kts | 100° |
| 2026-05-07 13:46 | 37.18925 | 125.39346 | 18816 ft | 485 kts | 101° |
| 2026-05-07 13:47 | 37.18355 | 125.44892 | 18174 ft | 475 kts | 101° |
| 2026-05-07 13:47 | 37.18073 | 125.47593 | 17801 ft | 470 kts | 101° |
| 2026-05-07 13:47 | 37.17643 | 125.51638 | 17207 ft | 465 kts | 101° |
| 2026-05-07 13:47 | 37.17205 | 125.55624 | 16621 ft | 459 kts | 101° |
| 2026-05-07 13:48 | 37.16628 | 125.60750 | 15940 ft | 430 kts | 101° |
| 2026-05-07 13:48 | 37.16343 | 125.63229 | 15456 ft | 421 kts | 101° |
| 2026-05-07 13:48 | 37.15772 | 125.67964 | 14497 ft | 414 kts | 101° |
| 2026-05-07 13:48 | 37.15320 | 125.71522 | 13982 ft | 412 kts | 101° |
| 2026-05-07 13:49 | 37.15014 | 125.73863 | 13701 ft | 409 kts | 101° |
| 2026-05-07 13:49 | 37.14388 | 125.78523 | 13107 ft | 402 kts | 101° |
| 2026-05-07 13:49 | 37.14078 | 125.80795 | 12802 ft | 398 kts | 101° |
| 2026-05-07 13:49 | 37.13863 | 125.84217 | 12213 ft | 394 kts | 88° |
| 2026-05-07 13:50 | 37.14083 | 125.87633 | 11724 ft | 391 kts | 83° |
| 2026-05-07 13:50 | 37.14409 | 125.90971 | 11398 ft | 375 kts | 82° |
| 2026-05-07 13:50 | 37.14827 | 125.95023 | 11105 ft | 334 kts | 81° |
| 2026-05-07 13:50 | 37.15025 | 125.96928 | 10823 ft | 321 kts | 81° |
| 2026-05-07 13:51 | 37.15305 | 125.99631 | 10197 ft | 313 kts | 81° |
| 2026-05-07 13:51 | 37.15579 | 126.02295 | 9598 ft | 304 kts | 81° |
| 2026-05-07 13:51 | 37.15841 | 126.04888 | 8980 ft | 295 kts | 81° |
| 2026-05-07 13:51 | 37.16087 | 126.07392 | 8464 ft | 285 kts | 81° |
| 2026-05-07 13:52 | 37.16322 | 126.09822 | 7882 ft | 278 kts | 81° |
| 2026-05-07 13:52 | 37.16547 | 126.12208 | 7319 ft | 273 kts | 81° |
| 2026-05-07 13:52 | 37.16769 | 126.14616 | 7158 ft | 281 kts | 81° |
| 2026-05-07 13:52 | 37.16992 | 126.17046 | 7017 ft | 279 kts | 81° |
| 2026-05-07 13:53 | 37.17210 | 126.19429 | 6987 ft | 271 kts | 81° |
| 2026-05-07 13:53 | 37.17418 | 126.21711 | 6905 ft | 263 kts | 81° |
| 2026-05-07 13:53 | 37.17624 | 126.23982 | 6803 ft | 254 kts | 81° |
| 2026-05-07 13:53 | 37.17818 | 126.26133 | 6615 ft | 249 kts | 81° |
| 2026-05-07 13:54 | 37.18007 | 126.28275 | 6382 ft | 244 kts | 81° |
| 2026-05-07 13:54 | 37.18188 | 126.30346 | 5897 ft | 241 kts | 81° |
| 2026-05-07 13:54 | 37.18370 | 126.32433 | 5366 ft | 240 kts | 81° |
| 2026-05-07 13:54 | 37.18544 | 126.34483 | 4935 ft | 234 kts | 81° |
| 2026-05-07 13:55 | 37.18712 | 126.36507 | 4320 ft | 233 kts | 81° |
| 2026-05-07 13:55 | 37.18870 | 126.38531 | 3755 ft | 233 kts | 81° |
| 2026-05-07 13:55 | 37.19019 | 126.40605 | 3277 ft | 230 kts | 81° |
| 2026-05-07 13:55 | 37.19151 | 126.42592 | 3021 ft | 229 kts | 81° |
| 2026-05-07 13:56 | 37.19465 | 126.44513 | 2998 ft | 223 kts | 65° |
| 2026-05-07 13:56 | 37.20050 | 126.46310 | 2945 ft | 221 kts | 62° |
| 2026-05-07 13:56 | 37.20655 | 126.48071 | 2562 ft | 220 kts | 61° |
| 2026-05-07 13:56 | 37.21275 | 126.49854 | 2373 ft | 223 kts | 61° |
| 2026-05-07 13:57 | 37.21891 | 126.51626 | 2140 ft | 218 kts | 61° |
| 2026-05-07 13:57 | 37.22497 | 126.53381 | 1782 ft | 222 kts | 61° |
| 2026-05-07 13:57 | 37.23110 | 126.55148 | 1698 ft | 218 kts | 61° |
| 2026-05-07 13:57 | 37.23749 | 126.56832 | 1685 ft | 212 kts | 49° |
| 2026-05-07 13:58 | 37.24860 | 126.57924 | 1704 ft | 205 kts | 14° |
| 2026-05-07 13:58 | 37.26192 | 126.58094 | 1685 ft | 184 kts | 353° |
| 2026-05-07 13:58 | 37.27422 | 126.57974 | 1684 ft | 171 kts | 346° |
| 2026-05-07 13:58 | 37.28477 | 126.57393 | 1711 ft | 165 kts | 330° |
| 2026-05-07 13:59 | 37.29488 | 126.56675 | 1706 ft | 167 kts | 328° |
| 2026-05-07 13:59 | 37.30463 | 126.55895 | 1700 ft | 166 kts | 325° |
| 2026-05-07 13:59 | 37.31413 | 126.55080 | 1696 ft | 165 kts | 324° |
| 2026-05-07 13:59 | 37.32353 | 126.54255 | 1698 ft | 164 kts | 324° |
| 2026-05-07 14:00 | 37.33276 | 126.53437 | 1703 ft | 164 kts | 324° |
| 2026-05-07 14:00 | 37.34208 | 126.52609 | 1709 ft | 164 kts | 324° |
| 2026-05-07 14:00 | 37.35142 | 126.51778 | 1710 ft | 165 kts | 324° |
| 2026-05-07 14:00 | 37.36081 | 126.50943 | 1710 ft | 165 kts | 325° |
| 2026-05-07 14:01 | 37.37024 | 126.50105 | 1707 ft | 167 kts | 325° |
| 2026-05-07 14:01 | 37.37976 | 126.49259 | 1566 ft | 171 kts | 324° |
| 2026-05-07 14:01 | 37.38931 | 126.48409 | 1356 ft | 164 kts | 324° |
| 2026-05-07 14:01 | 37.39826 | 126.47613 | 1114 ft | 151 kts | 324° |
| 2026-05-07 14:02 | 37.40385 | 126.47116 | 974 ft | 149 kts | 323° |
| 2026-05-07 14:02 | 37.40770 | 126.46773 | 876 ft | 152 kts | 322° |
| 2026-05-07 14:02 | 37.41619 | 126.46016 | 682 ft | 147 kts | 322° |
| 2026-05-07 14:02 | 37.42418 | 126.45306 | 452 ft | 134 kts | 322° |
| 2026-05-07 14:03 | 37.43195 | 126.44639 | 325 ft | 133 kts | 323° |
| 2026-05-07 14:03 | 37.43924 | 126.43973 | 140 ft | 129 kts | 323° |
| 2026-05-07 14:03 | 37.44648 | 126.43327 | 37 ft | 122 kts | 324° |
| 2026-05-07 14:03 | 37.45198 | 126.42833 | 37 ft | 71 kts | 324° |
| 2026-05-07 14:04 | 37.45471 | 126.42593 | 36 ft | 42 kts | 325° |
| 2026-05-07 14:04 | 37.45744 | 126.42439 | 36 ft | 43 kts | 358° |
| 2026-05-07 14:04 | 37.45853 | 126.42432 | 36 ft | 3 kts | 360° |
| 2026-05-07 14:04 | 37.45940 | 126.42418 | 37 ft | 30 kts | 345° |
| 2026-05-07 14:05 | 37.46115 | 126.42285 | 38 ft | 26 kts | 325° |
| 2026-05-07 14:05 | 37.46262 | 126.42154 | 38 ft | 26 kts | 324° |
| 2026-05-07 14:05 | 37.46409 | 126.42021 | 38 ft | 26 kts | 323° |
| 2026-05-07 14:05 | 37.46531 | 126.42030 | 38 ft | 17 kts | 48° |
| 2026-05-07 14:06 | 37.46605 | 126.42150 | 38 ft | 17 kts | 57° |
| 2026-05-07 14:06 | 37.46667 | 126.42268 | 38 ft | 8 kts | 53° |
| 2026-05-07 14:06 | 37.46672 | 126.42277 | 37 ft | 2 kts | 53° |
| 2026-05-07 14:06 | 37.46682 | 126.42294 | 37 ft | 3 kts | 54° |
| 2026-05-07 14:07 | 37.46689 | 126.42327 | 37 ft | 5 kts | 91° |
| 2026-05-07 14:07 | 37.46663 | 126.42395 | 37 ft | 6 kts | 137° |
| 2026-05-07 14:07 | 37.46521 | 126.42499 | 38 ft | 33 kts | 146° |
| 2026-05-07 14:07 | 37.46351 | 126.42648 | 37 ft | 23 kts | 143° |
| 2026-05-07 14:08 | 37.46236 | 126.42753 | 37 ft | 20 kts | 145° |
| 2026-05-07 14:08 | 37.46121 | 126.42854 | 37 ft | 20 kts | 143° |
| 2026-05-07 14:08 | 37.46005 | 126.42957 | 36 ft | 20 kts | 144° |
| 2026-05-07 14:08 | 37.45890 | 126.43059 | 37 ft | 20 kts | 144° |
| 2026-05-07 14:09 | 37.45819 | 126.43191 | 37 ft | 20 kts | 72° |
| 2026-05-07 14:09 | 37.45895 | 126.43340 | 37 ft | 20 kts | 55° |
| 2026-05-07 14:09 | 37.45918 | 126.43363 | 37 ft | 10 kts | 15° |
| 2026-05-07 14:09 | 37.46001 | 126.43297 | 37 ft | 15 kts | 327° |
| 2026-05-07 14:10 | 37.46087 | 126.43223 | 37 ft | 15 kts | 326° |
| 2026-05-07 14:10 | 37.46128 | 126.43195 | 37 ft | 3 kts | 351° |
| 2026-05-07 14:10 | 37.46142 | 126.43195 | 37 ft | 2 kts | 7° |
| 2026-05-07 14:10 | 37.46158 | 126.43206 | 37 ft | 4 kts | 41° |
| 2026-05-07 14:11 | 37.46172 | 126.43234 | 37 ft | 4 kts | 54° |
| 2026-05-07 14:11 | 37.46187 | 126.43264 | 37 ft | 4 kts | 56° |
| 2026-05-07 14:11 | 37.46193 | 126.43275 | 37 ft | 0 kts | 56° |
| 2026-05-07 14:11 | 37.46196 | 126.43280 | 37 ft | 0 kts | 56° |